createdAt,value
2023-05-08T00:01:16.904Z,100.00
2023-05-08T00:03:47.613Z,100.00
2023-05-08T00:06:18.109Z,100.00
2023-05-08T00:08:47.571Z,100.00
2023-05-08T00:11:16.669Z,100.00
2023-05-08T00:13:46.100Z,100.00
2023-05-08T00:16:15.499Z,100.00
2023-05-08T00:18:44.272Z,100.00
2023-05-08T00:21:12.831Z,100.00
2023-05-08T00:23:43.684Z,100.00
2023-05-08T00:26:12.403Z,100.00
2023-05-08T00:28:41.620Z,100.00
2023-05-08T00:31:10.476Z,100.00
2023-05-08T00:33:39.206Z,100.00
2023-05-08T00:36:08.520Z,100.00
2023-05-08T00:38:38.445Z,100.00
2023-05-08T00:41:08.692Z,100.00
2023-05-08T00:43:40.235Z,100.00
2023-05-08T00:46:09.847Z,100.00
2023-05-08T00:48:41.145Z,100.00
2023-05-08T00:51:11.463Z,100.00
2023-05-08T00:53:45.380Z,100.00
2023-05-08T00:56:18.208Z,100.00
2023-05-08T00:58:48.414Z,100.00
2023-05-08T01:01:17.218Z,100.00
2023-05-08T01:03:46.234Z,100.00
2023-05-08T01:06:14.886Z,100.00
2023-05-08T01:08:46.317Z,100.00
2023-05-08T01:11:23.042Z,100.00
2023-05-08T01:14:02.807Z,100.00
2023-05-08T01:16:41.152Z,100.00
2023-05-08T01:19:29.156Z,100.00
2023-05-08T01:22:06.611Z,100.00
2023-05-08T01:25:06.108Z,100.00
2023-05-08T01:28:07.072Z,100.00
2023-05-08T01:30:59.981Z,100.00
2023-05-08T01:33:36.866Z,100.00
2023-05-08T01:36:20.298Z,100.00
2023-05-08T01:38:57.431Z,100.00
2023-05-08T01:41:29.460Z,100.00
2023-05-08T01:44:12.180Z,100.00
2023-05-08T01:46:41.200Z,100.00
2023-05-08T01:49:19.171Z,100.00
2023-05-08T01:51:54.338Z,100.00
2023-05-08T01:54:27.282Z,100.00
2023-05-08T01:56:59.867Z,100.00
2023-05-08T01:59:31.702Z,100.00
2023-05-08T02:02:01.227Z,100.00
2023-05-08T02:04:32.022Z,100.00
2023-05-08T02:07:02.287Z,100.00
2023-05-08T02:09:33.612Z,100.00
2023-05-08T02:12:04.334Z,100.00
2023-05-08T02:14:34.285Z,100.00
2023-05-08T02:17:05.503Z,100.00
2023-05-08T02:19:37.935Z,100.00
2023-05-08T02:22:08.660Z,100.00
2023-05-08T02:24:39.288Z,100.00
2023-05-08T02:27:10.465Z,100.00
2023-05-08T02:29:43.125Z,100.00
2023-05-08T02:32:16.353Z,100.00
2023-05-08T02:35:02.570Z,100.00
2023-05-08T02:37:36.627Z,100.00
2023-05-08T02:40:11.387Z,100.00
2023-05-08T02:42:42.901Z,100.00
2023-05-08T02:45:23.874Z,100.00
2023-05-08T02:48:09.481Z,100.00
2023-05-08T02:51:03.583Z,100.00
2023-05-08T02:53:53.803Z,100.00
2023-05-08T02:56:34.887Z,100.00
2023-05-08T02:59:16.015Z,100.00
2023-05-08T03:02:19.145Z,100.00
2023-05-08T03:04:58.786Z,100.00
2023-05-08T03:07:32.349Z,100.00
2023-05-08T03:10:11.127Z,100.00
2023-05-08T03:13:05.511Z,100.00
2023-05-08T03:15:44.197Z,100.00
2023-05-08T03:18:26.709Z,100.00
2023-05-08T03:21:04.906Z,100.00
2023-05-08T03:23:42.704Z,100.00
2023-05-08T03:26:50.729Z,100.00
2023-05-08T03:29:21.779Z,100.00
2023-05-08T03:31:52.554Z,100.00
2023-05-08T03:34:22.910Z,100.00
2023-05-08T03:36:52.598Z,100.00
2023-05-08T03:39:23.303Z,100.00
2023-05-08T03:41:52.646Z,100.00
2023-05-08T03:44:21.878Z,100.00
2023-05-08T03:46:52.084Z,100.00
2023-05-08T03:49:23.988Z,100.00
2023-05-08T03:51:54.246Z,100.00
2023-05-08T03:54:25.832Z,100.00
2023-05-08T03:56:55.913Z,100.00
2023-05-08T03:59:36.839Z,100.00
2023-05-08T04:02:15.349Z,100.00
2023-05-08T04:04:47.178Z,100.00
2023-05-08T04:07:26.151Z,100.00
2023-05-08T04:10:03.170Z,100.00
2023-05-08T04:12:40.208Z,100.00
2023-05-08T04:15:14.393Z,100.00
2023-05-08T04:17:47.431Z,100.00
2023-05-08T04:20:21.418Z,100.00
2023-05-08T04:22:54.095Z,100.00
2023-05-08T04:25:27.168Z,100.00
2023-05-08T04:27:58.779Z,100.00
2023-05-08T04:30:28.533Z,100.00
2023-05-08T04:32:58.153Z,100.00
2023-05-08T04:35:27.919Z,100.00
2023-05-08T04:37:57.631Z,100.00
2023-05-08T04:40:27.994Z,100.00
2023-05-08T04:42:57.332Z,100.00
2023-05-08T04:45:27.366Z,100.00
2023-05-08T04:47:56.306Z,100.00
2023-05-08T04:50:25.790Z,100.00
2023-05-08T04:52:54.965Z,100.00
2023-05-08T04:55:23.468Z,100.00
2023-05-08T04:57:53.330Z,100.00
2023-05-08T05:00:22.481Z,100.00
2023-05-08T05:02:51.059Z,100.00
2023-05-08T05:05:20.034Z,100.00
2023-05-08T05:07:48.717Z,100.00
2023-05-08T05:10:18.498Z,100.00
2023-05-08T05:12:47.924Z,100.00
2023-05-08T05:15:18.653Z,100.00
2023-05-08T05:17:47.708Z,100.00
2023-05-08T05:20:17.387Z,100.00
2023-05-08T05:22:46.467Z,100.00
2023-05-08T05:25:16.273Z,100.00
2023-05-08T05:27:45.255Z,100.00
2023-05-08T05:30:14.455Z,100.00
2023-05-08T05:32:45.140Z,100.00
2023-05-08T05:35:14.001Z,100.00
2023-05-08T05:37:43.133Z,100.00
2023-05-08T05:40:13.656Z,100.00
2023-05-08T05:42:43.224Z,100.00
2023-05-08T05:45:12.697Z,100.00
2023-05-08T05:47:50.578Z,100.00
2023-05-08T05:50:22.721Z,100.00
2023-05-08T05:52:52.890Z,100.00
2023-05-08T05:55:22.936Z,100.00
2023-05-08T05:57:51.770Z,100.00
2023-05-08T06:00:21.648Z,100.00
2023-05-08T06:02:56.143Z,100.00
2023-05-08T06:05:25.271Z,100.00
2023-05-08T06:07:53.988Z,100.00
2023-05-08T06:10:22.829Z,100.00
2023-05-08T06:12:52.065Z,100.00
2023-05-08T06:15:21.021Z,100.00
2023-05-08T06:17:50.385Z,100.00
2023-05-08T06:20:21.059Z,100.00
2023-05-08T06:22:49.877Z,100.00
2023-05-08T06:25:19.391Z,100.00
2023-05-08T06:27:47.856Z,100.00
2023-05-08T06:30:16.783Z,100.00
2023-05-08T06:32:45.965Z,100.00
2023-05-08T06:35:18.494Z,100.00
2023-05-08T06:37:48.450Z,100.00
2023-05-08T06:40:17.263Z,100.00
2023-05-08T06:42:46.405Z,100.00
2023-05-08T06:45:15.636Z,100.00
2023-05-08T06:47:44.523Z,100.00
2023-05-08T06:50:13.328Z,99.18
2023-05-08T06:52:42.497Z,99.25
2023-05-08T06:55:15.247Z,96.69
2023-05-08T06:57:44.508Z,96.53
2023-05-08T07:00:14.909Z,95.97
2023-05-08T07:02:45.601Z,95.85
2023-05-08T07:05:14.893Z,94.87
2023-05-08T07:07:43.925Z,93.82
2023-05-08T07:10:14.432Z,94.30
2023-05-08T07:12:43.828Z,93.49
2023-05-08T07:15:24.713Z,93.76
2023-05-08T07:17:55.454Z,91.90
2023-05-08T07:20:24.630Z,92.41
2023-05-08T07:22:53.324Z,91.46
2023-05-08T07:25:23.784Z,90.34
2023-05-08T07:27:52.649Z,89.50
2023-05-08T07:30:22.095Z,90.15
2023-05-08T07:32:51.262Z,88.99
2023-05-08T07:35:22.933Z,89.45
2023-05-08T07:37:52.958Z,88.30
2023-05-08T07:40:23.590Z,87.14
2023-05-08T07:42:54.792Z,88.00
2023-05-08T07:45:24.248Z,86.42
2023-05-08T07:47:55.288Z,85.87
2023-05-08T07:50:25.489Z,86.00
2023-05-08T07:52:57.701Z,85.24
2023-05-08T07:55:28.160Z,84.34
2023-05-08T07:57:57.516Z,85.11
2023-05-08T08:00:27.634Z,84.02
2023-05-08T08:02:59.000Z,83.63
2023-05-08T08:05:31.612Z,82.95
2023-05-08T08:08:00.530Z,81.44
2023-05-08T08:10:31.676Z,79.96
2023-05-08T08:13:01.954Z,80.28
2023-05-08T08:15:31.017Z,79.10
2023-05-08T08:18:00.409Z,77.83
2023-05-08T08:20:30.008Z,78.24
2023-05-08T08:22:58.927Z,78.65
2023-05-08T08:25:28.070Z,78.92
2023-05-08T08:27:58.982Z,76.80
2023-05-08T08:30:30.907Z,77.80
2023-05-08T08:33:02.488Z,77.39
2023-05-08T08:35:31.286Z,71.59
2023-05-08T08:38:00.752Z,74.35
2023-05-08T08:40:29.979Z,74.82
2023-05-08T08:43:01.084Z,73.22
2023-05-08T08:45:30.513Z,74.04
2023-05-08T08:48:03.873Z,70.06
2023-05-08T08:50:34.333Z,73.05
2023-05-08T08:53:12.045Z,69.42
2023-05-08T08:55:45.761Z,70.97
2023-05-08T08:58:24.159Z,64.32
2023-05-08T09:00:57.884Z,68.79
2023-05-08T09:03:27.475Z,70.17
2023-05-08T09:05:56.883Z,70.05
2023-05-08T09:08:26.153Z,68.53
2023-05-08T09:10:57.818Z,70.29
2023-05-08T09:13:30.416Z,70.27
2023-05-08T09:16:00.589Z,71.26
2023-05-08T09:18:30.080Z,69.04
2023-05-08T09:21:00.611Z,66.57
2023-05-08T09:23:29.504Z,65.65
2023-05-08T09:26:01.491Z,63.81
2023-05-08T09:28:32.406Z,62.40
2023-05-08T09:31:02.338Z,62.54
2023-05-08T09:33:31.578Z,64.39
2023-05-08T09:36:04.324Z,67.07
2023-05-08T09:38:38.940Z,68.27
2023-05-08T09:41:09.616Z,68.48
2023-05-08T09:43:40.394Z,67.77
2023-05-08T09:46:25.970Z,62.78
2023-05-08T09:48:56.508Z,66.40
2023-05-08T09:51:26.601Z,64.80
2023-05-08T09:53:56.757Z,61.00
2023-05-08T09:56:34.218Z,54.77
2023-05-08T09:59:06.811Z,57.28
2023-05-08T10:01:39.944Z,59.21
2023-05-08T10:04:12.222Z,60.68
2023-05-08T10:06:41.389Z,62.63
2023-05-08T10:09:12.023Z,63.64
2023-05-08T10:11:41.754Z,62.23
2023-05-08T10:14:12.290Z,60.58
2023-05-08T10:16:45.746Z,57.41
2023-05-08T10:19:16.321Z,56.64
2023-05-08T10:21:48.588Z,54.04
2023-05-08T10:24:19.619Z,53.62
2023-05-08T10:27:06.801Z,50.84
2023-05-08T10:29:44.459Z,51.76
2023-05-08T10:32:16.052Z,56.46
2023-05-08T10:34:48.248Z,57.34
2023-05-08T10:37:17.916Z,55.88
2023-05-08T10:39:47.971Z,56.10
2023-05-08T10:42:17.092Z,58.97
2023-05-08T10:44:47.863Z,59.41
2023-05-08T10:47:29.302Z,57.00
2023-05-08T10:50:05.803Z,57.54
2023-05-08T10:52:40.988Z,58.50
2023-05-08T10:55:24.317Z,55.14
2023-05-08T10:58:07.870Z,54.96
2023-05-08T11:01:15.172Z,45.78
2023-05-08T11:03:51.082Z,51.65
2023-05-08T11:06:49.165Z,44.93
2023-05-08T11:09:29.703Z,50.57
2023-05-08T11:12:09.577Z,47.71
2023-05-08T11:14:43.074Z,47.86
2023-05-08T11:17:13.422Z,47.11
2023-05-08T11:19:57.647Z,43.22
2023-05-08T11:22:31.176Z,46.89
2023-05-08T11:25:05.609Z,46.70
2023-05-08T11:27:39.707Z,46.89
2023-05-08T11:30:26.491Z,41.62
2023-05-08T11:33:19.000Z,40.88
2023-05-08T11:35:53.370Z,44.67
2023-05-08T11:38:25.233Z,44.74
2023-05-08T11:41:02.832Z,46.28
2023-05-08T11:44:15.689Z,42.40
2023-05-08T11:46:50.151Z,45.43
2023-05-08T11:49:27.085Z,45.26
2023-05-08T11:52:00.521Z,45.99
2023-05-08T11:54:32.899Z,47.74
2023-05-08T11:57:02.685Z,49.50
2023-05-08T11:59:37.446Z,49.47
2023-05-08T12:02:09.087Z,51.45
2023-05-08T12:04:47.251Z,47.91
2023-05-08T12:07:16.582Z,52.68
2023-05-08T12:09:47.452Z,52.96
2023-05-08T12:12:17.266Z,54.15
2023-05-08T12:14:50.607Z,54.27
2023-05-08T12:17:20.175Z,53.32
2023-05-08T12:19:55.570Z,50.47
2023-05-08T12:22:24.666Z,49.07
2023-05-08T12:24:55.686Z,46.33
2023-05-08T12:27:26.710Z,45.40
2023-05-08T12:29:56.083Z,44.54
2023-05-08T12:32:27.723Z,44.85
2023-05-08T12:35:03.103Z,43.94
2023-05-08T12:37:32.323Z,42.76
2023-05-08T12:40:01.609Z,42.55
2023-05-08T12:42:46.924Z,40.45
2023-05-08T12:45:20.182Z,44.96
2023-05-08T12:47:50.374Z,47.84
2023-05-08T12:50:23.260Z,49.33
2023-05-08T12:52:53.307Z,50.60
2023-05-08T12:55:26.715Z,50.14
2023-05-08T12:58:07.741Z,47.56
2023-05-08T13:00:39.415Z,49.29
2023-05-08T13:03:09.592Z,47.45
2023-05-08T13:05:44.370Z,45.28
2023-05-08T13:08:13.928Z,46.17
2023-05-08T13:10:51.204Z,43.90
2023-05-08T13:13:21.780Z,42.86
2023-05-08T13:15:53.224Z,42.62
2023-05-08T13:18:25.778Z,42.20
2023-05-08T13:20:59.135Z,41.85
2023-05-08T13:23:28.514Z,42.43
2023-05-08T13:25:58.275Z,42.12
2023-05-08T13:28:28.286Z,42.12
2023-05-08T13:30:57.847Z,41.44
2023-05-08T13:33:27.686Z,44.65
2023-05-08T13:36:01.841Z,45.16
2023-05-08T13:38:31.148Z,46.11
2023-05-08T13:41:01.775Z,47.03
2023-05-08T13:43:31.199Z,47.03
2023-05-08T13:46:00.333Z,45.03
2023-05-08T13:48:29.721Z,45.06
2023-05-08T13:50:59.133Z,44.24
2023-05-08T13:53:29.759Z,43.45
2023-05-08T13:55:58.583Z,43.46
2023-05-08T13:58:27.689Z,44.09
2023-05-08T14:00:57.140Z,43.63
2023-05-08T14:03:29.223Z,43.70
2023-05-08T14:05:58.522Z,43.05
2023-05-08T14:08:29.548Z,42.71
2023-05-08T14:10:58.840Z,42.73
2023-05-08T14:13:28.091Z,43.15
2023-05-08T14:15:57.269Z,42.49
2023-05-08T14:18:26.926Z,41.67
2023-05-08T14:20:57.469Z,41.96
2023-05-08T14:23:30.499Z,42.23
2023-05-08T14:25:59.547Z,42.67
2023-05-08T14:28:29.001Z,42.46
2023-05-08T14:30:58.499Z,42.62
2023-05-08T14:33:27.186Z,43.98
2023-05-08T14:35:57.052Z,44.88
2023-05-08T14:38:26.647Z,47.07
2023-05-08T14:40:56.688Z,46.51
2023-05-08T14:43:25.685Z,45.36
2023-05-08T14:45:54.588Z,45.01
2023-05-08T14:48:24.265Z,44.49
2023-05-08T14:50:53.492Z,44.43
2023-05-08T14:53:22.412Z,44.66
2023-05-08T14:55:51.604Z,44.90
2023-05-08T14:58:22.222Z,42.50
2023-05-08T15:00:51.653Z,43.25
2023-05-08T15:03:20.766Z,44.66
2023-05-08T15:05:49.883Z,43.57
2023-05-08T15:08:18.867Z,43.65
2023-05-08T15:10:47.958Z,42.72
2023-05-08T15:13:16.928Z,43.91
2023-05-08T15:15:47.239Z,43.64
2023-05-08T15:18:16.930Z,43.97
2023-05-08T15:20:46.414Z,44.00
2023-05-08T15:23:15.289Z,44.00
2023-05-08T15:25:46.456Z,44.79
2023-05-08T15:28:15.756Z,44.89
2023-05-08T15:30:49.829Z,44.29
2023-05-08T15:33:18.775Z,45.09
2023-05-08T15:35:47.927Z,45.00
2023-05-08T15:38:17.213Z,45.58
2023-05-08T15:40:46.579Z,47.10
2023-05-08T15:43:15.486Z,46.79
2023-05-08T15:45:44.222Z,47.71
2023-05-08T15:48:15.767Z,47.73
2023-05-08T15:50:46.268Z,47.72
2023-05-08T15:53:15.314Z,46.49
2023-05-08T15:55:44.304Z,46.29
2023-05-08T15:58:14.129Z,45.92
2023-05-08T16:00:45.508Z,46.35
2023-05-08T16:03:17.361Z,45.99
2023-05-08T16:05:46.916Z,45.40
2023-05-08T16:08:16.819Z,45.64
2023-05-08T16:10:45.596Z,46.37
2023-05-08T16:13:14.576Z,47.01
2023-05-08T16:15:43.681Z,46.82
2023-05-08T16:18:12.879Z,46.87
2023-05-08T16:20:43.812Z,46.53
2023-05-08T16:23:14.681Z,44.99
2023-05-08T16:25:43.393Z,48.09
2023-05-08T16:28:12.528Z,48.07
2023-05-08T16:30:41.719Z,48.08
2023-05-08T16:33:12.512Z,47.94
2023-05-08T16:35:43.173Z,47.92
2023-05-08T16:38:11.955Z,47.81
2023-05-08T16:40:42.002Z,48.81
2023-05-08T16:43:11.302Z,49.54
2023-05-08T16:45:40.063Z,49.82
2023-05-08T16:48:09.854Z,49.61
2023-05-08T16:50:39.123Z,49.29
2023-05-08T16:53:09.852Z,51.44
2023-05-08T16:55:38.866Z,51.29
2023-05-08T16:58:08.016Z,51.91
2023-05-08T17:00:37.442Z,52.08
2023-05-08T17:03:11.542Z,52.39
2023-05-08T17:05:41.811Z,52.57
2023-05-08T17:08:13.258Z,53.13
2023-05-08T17:10:43.966Z,53.96
2023-05-08T17:13:13.350Z,54.23
2023-05-08T17:15:43.374Z,53.68
2023-05-08T17:18:13.004Z,54.25
2023-05-08T17:20:42.863Z,54.84
2023-05-08T17:23:13.232Z,56.29
2023-05-08T17:25:42.129Z,57.25
2023-05-08T17:28:11.230Z,56.59
2023-05-08T17:30:41.399Z,56.63
2023-05-08T17:33:10.073Z,57.02
2023-05-08T17:35:38.829Z,57.42
2023-05-08T17:38:08.009Z,57.41
2023-05-08T17:40:39.249Z,58.97
2023-05-08T17:43:09.331Z,60.98
2023-05-08T17:45:40.457Z,63.27
2023-05-08T17:48:14.639Z,62.75
2023-05-08T17:50:47.694Z,63.42
2023-05-08T17:53:22.365Z,64.30
2023-05-08T17:55:54.882Z,65.35
2023-05-08T17:58:24.036Z,65.45
2023-05-08T18:00:54.522Z,65.72
2023-05-08T18:03:24.453Z,66.88
2023-05-08T18:05:53.920Z,68.27
2023-05-08T18:08:23.269Z,67.88
2023-05-08T18:10:52.363Z,68.32
2023-05-08T18:13:23.186Z,68.77
2023-05-08T18:15:53.288Z,69.69
2023-05-08T18:18:22.628Z,69.97
2023-05-08T18:20:53.208Z,70.98
2023-05-08T18:23:24.553Z,70.94
2023-05-08T18:25:53.635Z,71.77
2023-05-08T18:28:23.883Z,71.01
2023-05-08T18:30:52.810Z,71.04
2023-05-08T18:33:21.985Z,70.70
2023-05-08T18:35:55.894Z,70.03
2023-05-08T18:38:25.472Z,70.40
2023-05-08T18:40:54.579Z,71.02
2023-05-08T18:43:24.864Z,71.19
2023-05-08T18:45:53.829Z,71.65
2023-05-08T18:48:22.980Z,71.91
2023-05-08T18:50:52.167Z,72.45
2023-05-08T18:53:21.616Z,73.46
2023-05-08T18:55:51.199Z,73.53
2023-05-08T18:58:20.344Z,74.19
2023-05-08T19:00:50.595Z,75.28
2023-05-08T19:03:19.899Z,75.52
2023-05-08T19:05:48.756Z,77.10
2023-05-08T19:08:18.853Z,77.77
2023-05-08T19:10:47.975Z,78.99
2023-05-08T19:13:17.150Z,80.53
2023-05-08T19:15:46.668Z,80.91
2023-05-08T19:18:18.278Z,81.72
2023-05-08T19:20:47.075Z,82.52
2023-05-08T19:23:17.421Z,82.47
2023-05-08T19:25:46.393Z,82.58
2023-05-08T19:28:15.435Z,83.19
2023-05-08T19:30:44.485Z,82.83
2023-05-08T19:33:13.426Z,83.17
2023-05-08T19:35:45.147Z,82.80
2023-05-08T19:38:14.119Z,83.75
2023-05-08T19:40:55.716Z,84.90
2023-05-08T19:43:26.195Z,85.28
2023-05-08T19:45:56.727Z,85.36
2023-05-08T19:48:26.816Z,85.94
2023-05-08T19:50:57.304Z,86.38
2023-05-08T19:53:26.333Z,87.10
2023-05-08T19:55:55.094Z,86.94
2023-05-08T19:58:24.413Z,87.65
2023-05-08T20:00:53.384Z,87.40
2023-05-08T20:03:23.238Z,87.99
2023-05-08T20:05:54.363Z,87.61
2023-05-08T20:08:25.866Z,88.76
2023-05-08T20:10:55.013Z,89.25
2023-05-08T20:13:24.395Z,90.14
2023-05-08T20:15:54.103Z,90.38
2023-05-08T20:18:23.233Z,90.63
2023-05-08T20:20:53.584Z,90.87
2023-05-08T20:23:22.942Z,90.77
2023-05-08T20:25:54.919Z,91.37
2023-05-08T20:28:26.266Z,95.30
2023-05-08T20:30:55.308Z,92.13
2023-05-08T20:33:24.161Z,92.77
2023-05-08T20:35:54.293Z,92.77
2023-05-08T20:38:23.488Z,92.69
2023-05-08T20:40:59.353Z,92.98
2023-05-08T20:43:29.830Z,93.83
2023-05-08T20:45:59.124Z,93.69
2023-05-08T20:48:28.296Z,94.67
2023-05-08T20:50:57.413Z,94.93
2023-05-08T20:53:26.040Z,94.96
2023-05-08T20:56:03.297Z,95.82
2023-05-08T20:58:32.902Z,95.49
2023-05-08T21:01:02.511Z,96.09
2023-05-08T21:03:31.901Z,95.61
2023-05-08T21:06:01.244Z,95.82
2023-05-08T21:08:30.673Z,96.29
2023-05-08T21:11:02.360Z,96.87
2023-05-08T21:13:33.496Z,97.56
2023-05-08T21:16:03.272Z,96.93
2023-05-08T21:18:32.834Z,96.92
2023-05-08T21:21:02.241Z,97.29
2023-05-08T21:23:31.951Z,97.27
2023-05-08T21:26:01.077Z,98.75
2023-05-08T21:28:32.646Z,98.96
2023-05-08T21:31:03.027Z,99.53
2023-05-08T21:33:33.977Z,100.00
2023-05-08T21:36:03.169Z,100.00
2023-05-08T21:38:32.367Z,100.00
2023-05-08T21:41:07.841Z,100.00
2023-05-08T21:43:37.287Z,100.00
2023-05-08T21:46:09.398Z,100.00
2023-05-08T21:48:38.056Z,100.00
2023-05-08T21:51:07.775Z,100.00
2023-05-08T21:53:36.516Z,100.00
2023-05-08T21:56:07.368Z,100.00
2023-05-08T21:58:36.336Z,100.00
2023-05-08T22:01:07.862Z,99.74
2023-05-08T22:03:37.253Z,99.37
2023-05-08T22:06:06.462Z,99.53
2023-05-08T22:08:36.016Z,99.85
2023-05-08T22:11:05.932Z,100.00
2023-05-08T22:13:34.925Z,100.00
2023-05-08T22:16:04.227Z,100.00
2023-05-08T22:18:34.753Z,100.00
2023-05-08T22:21:04.950Z,100.00
2023-05-08T22:23:35.038Z,100.00
2023-05-08T22:26:04.462Z,100.00
2023-05-08T22:28:33.032Z,100.00
2023-05-08T22:31:01.793Z,100.00
2023-05-08T22:33:33.980Z,100.00
2023-05-08T22:36:04.541Z,100.00
2023-05-08T22:38:33.186Z,100.00
2023-05-08T22:41:02.127Z,100.00
2023-05-08T22:43:30.932Z,100.00
2023-05-08T22:46:00.324Z,100.00
2023-05-08T22:48:30.166Z,100.00
2023-05-08T22:50:59.388Z,100.00
2023-05-08T22:53:29.576Z,100.00
2023-05-08T22:55:58.426Z,100.00
2023-05-08T22:58:27.358Z,100.00
2023-05-08T23:00:56.369Z,100.00
2023-05-08T23:03:26.747Z,100.00
2023-05-08T23:05:57.209Z,100.00
2023-05-08T23:08:28.828Z,100.00
2023-05-08T23:11:00.585Z,100.00
2023-05-08T23:13:37.371Z,100.00
2023-05-08T23:16:06.792Z,100.00
2023-05-08T23:18:35.522Z,100.00
2023-05-08T23:21:08.038Z,100.00
2023-05-08T23:23:37.688Z,100.00
2023-05-08T23:26:08.093Z,100.00
2023-05-08T23:28:37.111Z,100.00
2023-05-08T23:31:08.171Z,100.00
2023-05-08T23:33:36.965Z,100.00
2023-05-08T23:36:06.246Z,100.00
2023-05-08T23:38:34.948Z,100.00
2023-05-08T23:41:03.709Z,100.00
2023-05-08T23:43:34.606Z,100.00
2023-05-08T23:46:03.710Z,100.00
2023-05-08T23:48:32.250Z,100.00
2023-05-08T23:51:00.894Z,100.00
2023-05-08T23:53:29.467Z,100.00
2023-05-08T23:55:57.879Z,100.00
2023-05-08T23:58:26.508Z,100.00
